Time;durP1;ratioP1;P1;durP2;ratioP2;P2;SDS_P1;SDS_P2;PMS_P1;PMS_P2;Temp;Humidity;BMP_temperature;BMP_pressure;BME280_temperature;BME280_humidity;BME280_pressure;Samples;Min_cycle;Max_cycle;Signal;HPM_P1;HPM_P2
2021/12/04 00:02:20;;;;;;;;;0.00;0.00;;;;;;;;5049632;28;49583;-69
2021/12/04 00:04:48;;;;;;;;;1.25;1.25;;;;;;;;5049640;28;49751;-68
2021/12/04 00:07:13;;;;;;;;;0.00;0.00;;;;;;;;5049635;28;50536;-70
2021/12/04 00:09:39;;;;;;;;;0.75;0.75;;;;;;;;5050069;28;49823;-70
2021/12/04 00:12:06;;;;;;;;;0.50;0.50;;;;;;;;5049725;28;49703;-69
2021/12/04 00:14:32;;;;;;;;;0.00;0.00;;;;;;;;5050143;28;49840;-70
2021/12/04 00:16:58;;;;;;;;;1.00;0.00;;;;;;;;5049151;28;50552;-69
2021/12/04 00:19:24;;;;;;;;;0.00;0.00;;;;;;;;5049683;28;49937;-70
2021/12/04 00:21:49;;;;;;;;;0.00;0.00;;;;;;;;5049370;28;49587;-70
2021/12/04 00:24:15;;;;;;;;;1.00;0.00;;;;;;;;5049534;28;49956;-70
2021/12/04 00:26:40;;;;;;;;;0.00;0.00;;;;;;;;5049310;28;50590;-71
2021/12/04 00:29:06;;;;;;;;;0.00;0.00;;;;;;;;5049542;28;49641;-69
2021/12/04 00:31:31;;;;;;;;;0.00;0.00;;;;;;;;5049207;28;49616;-69
2021/12/04 00:33:57;;;;;;;;;0.00;0.00;;;;;;;;5049425;28;49571;-69
2021/12/04 00:49:27;;;;;;;;;0.00;0.00;;;;;;;;5048982;28;49857;-72
2021/12/04 00:51:54;;;;;;;;;0.00;0.00;;;;;;;;5048928;28;49627;-71
2021/12/04 00:54:19;;;;;;;;;0.00;0.00;;;;;;;;5049215;28;49965;-71
2021/12/04 00:56:45;;;;;;;;;0.00;0.00;;;;;;;;5048650;28;50490;-71
2021/12/04 00:59:10;;;;;;;;;0.00;0.00;;;;;;;;5049108;28;49550;-71
2021/12/04 01:01:39;;;;;;;;;0.00;0.00;;;;;;;;5049287;28;49755;-72
2021/12/04 01:04:07;;;;;;;;;0.00;0.00;;;;;;;;5047753;28;49870;-71
2021/12/04 01:06:33;;;;;;;;;0.00;0.00;;;;;;;;5048601;28;49731;-71
2021/12/04 01:08:58;;;;;;;;;0.00;0.00;;;;;;;;5048716;28;49695;-70
2021/12/04 01:11:23;;;;;;;;;0.00;0.00;;;;;;;;5048923;28;49719;-70
2021/12/04 01:13:48;;;;;;;;;0.00;0.00;;;;;;;;5049182;28;49562;-70
2021/12/04 01:16:14;;;;;;;;;0.00;0.00;;;;;;;;5048723;28;49620;-71
2021/12/04 01:18:39;;;;;;;;;0.00;0.00;;;;;;;;5048729;28;49660;-71
2021/12/04 01:21:05;;;;;;;;;0.00;0.00;;;;;;;;5048745;28;49752;-71
2021/12/04 01:23:30;;;;;;;;;1.00;0.00;;;;;;;;5048912;28;49828;-70
2021/12/04 01:25:55;;;;;;;;;0.00;0.00;;;;;;;;5048765;28;49857;-71
2021/12/04 01:28:20;;;;;;;;;0.00;0.00;;;;;;;;5048621;28;49574;-71
2021/12/04 01:30:46;;;;;;;;;0.00;0.00;;;;;;;;5048714;28;49776;-70
2021/12/04 01:33:11;;;;;;;;;0.00;0.00;;;;;;;;5048913;28;49748;-71
2021/12/04 01:35:36;;;;;;;;;0.00;0.00;;;;;;;;5048231;28;49747;-70
2021/12/04 01:38:01;;;;;;;;;0.00;0.00;;;;;;;;5048434;28;49859;-70
2021/12/04 01:40:27;;;;;;;;;0.00;0.00;;;;;;;;5048924;28;49723;-70
2021/12/04 01:42:53;;;;;;;;;0.00;0.00;;;;;;;;5048618;28;49711;-70
2021/12/04 01:45:18;;;;;;;;;0.00;0.00;;;;;;;;5046857;28;49816;-70
2021/12/04 01:47:44;;;;;;;;;0.00;0.00;;;;;;;;5048293;28;49753;-71
2021/12/04 01:50:09;;;;;;;;;0.00;0.00;;;;;;;;5048265;28;49654;-71
2021/12/04 01:52:34;;;;;;;;;0.00;0.00;;;;;;;;5048850;28;49612;-70
2021/12/04 01:55:00;;;;;;;;;0.00;0.00;;;;;;;;5048308;28;50579;-70
2021/12/04 01:57:25;;;;;;;;;0.00;0.00;;;;;;;;5048341;28;49629;-70
2021/12/04 01:59:51;;;;;;;;;0.00;0.00;;;;;;;;5048523;28;49664;-70
2021/12/04 02:02:17;;;;;;;;;0.00;0.00;;;;;;;;5048555;28;49748;-70
2021/12/04 02:04:42;;;;;;;;;0.00;0.00;;;;;;;;5047824;28;49760;-69
2021/12/04 02:07:09;;;;;;;;;0.00;0.00;;;;;;;;5048215;28;49785;-69
2021/12/04 02:09:35;;;;;;;;;0.00;0.00;;;;;;;;5048194;28;49758;-69
2021/12/04 02:12:05;;;;;;;;;0.00;0.00;;;;;;;;5048844;28;49753;-69
2021/12/04 02:14:30;;;;;;;;;0.00;0.00;;;;;;;;5047886;28;49765;-69
2021/12/04 02:16:56;;;;;;;;;1.00;0.00;;;;;;;;5048376;28;49835;-69
2021/12/04 02:19:21;;;;;;;;;0.00;0.00;;;;;;;;5048131;28;49768;-69
2021/12/04 02:21:46;;;;;;;;;1.00;0.00;;;;;;;;5046723;28;50011;-69
2021/12/04 02:24:11;;;;;;;;;0.50;0.00;;;;;;;;5047805;28;50647;-69
2021/12/04 02:26:37;;;;;;;;;0.00;0.00;;;;;;;;5047891;28;49630;-70
2021/12/04 02:29:03;;;;;;;;;0.00;0.00;;;;;;;;5046729;28;49707;-69
2021/12/04 02:31:28;;;;;;;;;0.00;0.00;;;;;;;;5048401;28;49896;-69
2021/12/04 02:33:54;;;;;;;;;0.00;0.00;;;;;;;;5047668;28;49639;-69
2021/12/04 02:36:19;;;;;;;;;1.00;0.00;;;;;;;;5046165;28;49744;-69
2021/12/04 02:38:49;;;;;;;;;0.00;0.00;;;;;;;;5047756;28;49672;-69
2021/12/04 02:41:15;;;;;;;;;0.25;0.00;;;;;;;;5048028;28;49775;-69
2021/12/04 02:43:40;;;;;;;;;0.00;0.00;;;;;;;;5047471;28;50435;-69
2021/12/04 02:46:05;;;;;;;;;0.00;0.00;;;;;;;;5047886;28;49671;-69
2021/12/04 02:48:30;;;;;;;;;0.00;0.00;;;;;;;;5047779;28;49786;-70
2021/12/04 02:50:56;;;;;;;;;0.00;0.00;;;;;;;;5048111;28;49802;-69
2021/12/04 02:53:21;;;;;;;;;0.00;0.00;;;;;;;;5047450;28;49750;-70
2021/12/04 02:55:47;;;;;;;;;0.00;0.00;;;;;;;;5047556;28;49753;-70
2021/12/04 02:58:14;;;;;;;;;1.75;0.75;;;;;;;;5047533;28;49721;-70
2021/12/04 03:00:46;;;;;;;;;0.00;0.00;;;;;;;;5047573;28;49829;-70
2021/12/04 03:03:11;;;;;;;;;0.00;0.00;;;;;;;;5047371;28;50561;-70
2021/12/04 03:05:37;;;;;;;;;0.00;0.00;;;;;;;;5046905;28;49649;-70
2021/12/04 03:08:03;;;;;;;;;0.00;0.00;;;;;;;;5047484;28;49712;-70
2021/12/04 03:10:28;;;;;;;;;0.00;0.00;;;;;;;;5049625;28;49676;-70
2021/12/04 03:12:53;;;;;;;;;0.00;0.00;;;;;;;;5050550;28;50908;-69
2021/12/04 03:15:21;;;;;;;;;0.75;0.00;;;;;;;;5050303;28;49642;-71
2021/12/04 03:17:46;;;;;;;;;1.00;1.00;;;;;;;;5050241;28;49653;-71
2021/12/04 03:20:11;;;;;;;;;0.00;0.00;;;;;;;;5050072;28;49886;-70
2021/12/04 03:22:39;;;;;;;;;0.00;0.00;;;;;;;;5050178;28;49830;-70
2021/12/04 03:25:04;;;;;;;;;0.00;0.00;;;;;;;;5050176;28;49624;-71
2021/12/04 03:27:31;;;;;;;;;0.00;0.00;;;;;;;;5050228;28;49796;-70
2021/12/04 03:29:59;;;;;;;;;0.00;0.00;;;;;;;;5050555;28;49789;-70
2021/12/04 03:43:13;;;;;;;;;1.00;0.00;;;;;;;;5049780;28;50426;-70
2021/12/04 03:45:41;;;;;;;;;0.00;0.00;;;;;;;;5049908;28;49539;-70
2021/12/04 03:48:13;;;;;;;;;1.00;1.00;;;;;;;;5050448;28;49942;-70
2021/12/04 03:50:39;;;;;;;;;0.00;0.00;;;;;;;;5049800;28;49562;-70
2021/12/04 03:53:05;;;;;;;;;0.00;0.00;;;;;;;;5050019;28;50793;-70
2021/12/04 03:55:30;;;;;;;;;0.00;0.00;;;;;;;;5049721;28;49755;-70
2021/12/04 03:57:55;;;;;;;;;0.00;0.00;;;;;;;;5049785;28;49697;-70
2021/12/04 04:00:23;;;;;;;;;0.00;0.00;;;;;;;;5050031;28;49696;-70
2021/12/04 04:02:48;;;;;;;;;0.00;0.00;;;;;;;;5049623;28;49683;-70
2021/12/04 04:05:13;;;;;;;;;0.00;0.00;;;;;;;;5048093;28;49738;-70
2021/12/04 04:07:39;;;;;;;;;0.00;0.00;;;;;;;;5049887;28;49712;-70
2021/12/04 04:10:05;;;;;;;;;0.50;0.00;;;;;;;;5049703;28;50027;-69
2021/12/04 04:12:30;;;;;;;;;0.00;0.00;;;;;;;;5049640;28;50547;-70
2021/12/04 04:14:55;;;;;;;;;0.25;0.00;;;;;;;;5049895;28;49727;-70
2021/12/04 04:17:21;;;;;;;;;0.00;0.00;;;;;;;;5049624;28;49695;-70
2021/12/04 04:19:46;;;;;;;;;0.00;0.00;;;;;;;;5049603;28;49764;-70
2021/12/04 04:22:14;;;;;;;;;0.00;0.00;;;;;;;;5048407;28;51029;-70
2021/12/04 04:24:39;;;;;;;;;0.00;0.00;;;;;;;;5049274;28;49796;-70
2021/12/04 04:27:05;;;;;;;;;0.00;0.00;;;;;;;;5049494;28;49532;-70
2021/12/04 04:29:30;;;;;;;;;0.00;0.00;;;;;;;;5049821;28;49453;-70
2021/12/04 04:31:55;;;;;;;;;0.00;0.00;;;;;;;;5047613;28;51335;-70
2021/12/04 04:34:25;;;;;;;;;0.00;0.00;;;;;;;;5049039;28;49682;-69
2021/12/04 05:01:54;;;;;;;;;0.00;0.00;;;;;;;;5019839;27;49790;-70
2021/12/04 05:12:45;;;;;;;;;1.00;0.00;;;;;;;;5028556;28;49978;-72
2021/12/04 05:15:14;;;;;;;;;1.00;0.00;;;;;;;;5027793;28;49875;-70
2021/12/04 05:20:20;;;;;;;;;0.00;0.00;;;;;;;;5028126;27;49850;-70
2021/12/04 05:22:46;;;;;;;;;0.00;0.00;;;;;;;;5007605;28;49970;-70
2021/12/04 05:25:11;;;;;;;;;0.00;0.00;;;;;;;;5033296;28;49769;-70
2021/12/04 05:27:37;;;;;;;;;0.00;0.00;;;;;;;;5048407;28;49937;-72
2021/12/04 05:30:03;;;;;;;;;0.75;0.00;;;;;;;;5048477;28;49746;-70
2021/12/04 05:32:28;;;;;;;;;0.00;0.00;;;;;;;;5048295;28;49504;-71
2021/12/04 05:34:53;;;;;;;;;0.00;0.00;;;;;;;;5047516;28;49710;-70
2021/12/04 05:37:18;;;;;;;;;0.00;0.00;;;;;;;;5048374;28;49674;-71
2021/12/04 05:39:44;;;;;;;;;0.00;0.00;;;;;;;;5048509;28;50146;-71
2021/12/04 05:42:09;;;;;;;;;0.00;0.00;;;;;;;;5048744;28;49957;-69
2021/12/04 05:44:34;;;;;;;;;0.00;0.00;;;;;;;;5047792;28;50777;-69
2021/12/04 05:47:17;;;;;;;;;0.00;0.00;;;;;;;;5048169;28;49777;-70
2021/12/04 05:50:21;;;;;;;;;0.00;0.00;;;;;;;;5048175;28;49976;-70
2021/12/04 05:55:14;;;;;;;;;0.00;0.00;;;;;;;;5048036;28;50320;-70
2021/12/04 05:57:40;;;;;;;;;0.00;0.00;;;;;;;;5047624;28;49821;-70
2021/12/04 06:00:10;;;;;;;;;0.00;0.00;;;;;;;;5048182;28;49810;-70
2021/12/04 06:02:36;;;;;;;;;0.00;0.00;;;;;;;;5047804;28;49730;-70
2021/12/04 06:05:01;;;;;;;;;0.00;0.00;;;;;;;;5047627;28;49630;-70
2021/12/04 06:07:26;;;;;;;;;0.00;0.00;;;;;;;;5048256;28;49738;-69
2021/12/04 06:09:51;;;;;;;;;0.00;0.00;;;;;;;;5048347;28;49821;-69
2021/12/04 06:12:17;;;;;;;;;0.00;0.00;;;;;;;;5048176;28;50070;-69
2021/12/04 06:14:46;;;;;;;;;0.00;0.00;;;;;;;;5047620;28;49812;-69
2021/12/04 06:17:12;;;;;;;;;0.00;0.00;;;;;;;;5029341;28;49815;-69
2021/12/04 06:25:05;;;;;;;;;0.00;0.00;;;;;;;;5047087;28;50085;-70
2021/12/04 06:27:31;;;;;;;;;0.00;0.00;;;;;;;;5048063;28;49883;-70
2021/12/04 06:29:56;;;;;;;;;0.00;0.00;;;;;;;;5047762;28;49754;-70
2021/12/04 06:32:21;;;;;;;;;0.00;0.00;;;;;;;;5048082;28;49677;-70
2021/12/04 06:34:46;;;;;;;;;0.00;0.00;;;;;;;;5046740;28;50444;-70
2021/12/04 06:37:12;;;;;;;;;0.00;0.00;;;;;;;;5047736;28;49850;-70
2021/12/04 06:39:37;;;;;;;;;0.00;0.00;;;;;;;;5047618;28;49670;-70
2021/12/04 06:42:02;;;;;;;;;0.00;0.00;;;;;;;;5048056;28;49895;-69
2021/12/04 06:44:27;;;;;;;;;0.50;0.00;;;;;;;;5046110;28;49895;-70
2021/12/04 06:46:54;;;;;;;;;0.00;0.00;;;;;;;;5047887;28;49897;-70
2021/12/04 06:49:24;;;;;;;;;0.00;0.00;;;;;;;;5047577;28;49708;-70
2021/12/04 06:51:53;;;;;;;;;0.00;0.00;;;;;;;;5047280;28;49844;-69
2021/12/04 06:54:21;;;;;;;;;0.00;0.00;;;;;;;;5046980;28;50049;-69
2021/12/04 06:56:47;;;;;;;;;0.25;0.25;;;;;;;;5047265;28;49905;-69
2021/12/04 06:59:20;;;;;;;;;1.00;1.00;;;;;;;;5047322;28;49989;-69
2021/12/04 07:01:46;;;;;;;;;0.00;0.00;;;;;;;;5047475;28;49786;-70
2021/12/04 07:04:12;;;;;;;;;0.00;0.00;;;;;;;;5047040;28;50977;-70
2021/12/04 07:06:37;;;;;;;;;0.00;0.00;;;;;;;;5047182;28;49764;-70
2021/12/04 07:09:03;;;;;;;;;0.00;0.00;;;;;;;;5046987;28;49068;-69
2021/12/04 07:11:29;;;;;;;;;0.00;0.00;;;;;;;;5048845;27;49709;-69
2021/12/04 07:13:54;;;;;;;;;0.25;0.25;;;;;;;;5047284;27;49690;-70
2021/12/04 07:16:20;;;;;;;;;1.00;0.00;;;;;;;;5058134;28;49991;-69
2021/12/04 07:18:46;;;;;;;;;0.00;0.00;;;;;;;;5067809;28;50002;-69
2021/12/04 07:21:11;;;;;;;;;0.25;0.25;;;;;;;;5049184;28;49820;-69
2021/12/04 07:23:38;;;;;;;;;0.00;0.00;;;;;;;;5061818;28;49782;-71
2021/12/04 07:26:03;;;;;;;;;0.00;0.00;;;;;;;;5046788;28;49686;-68
2021/12/04 07:28:28;;;;;;;;;0.00;0.00;;;;;;;;5047247;28;49621;-70
2021/12/04 07:30:53;;;;;;;;;0.50;0.50;;;;;;;;5046835;28;49634;-68
2021/12/04 07:33:19;;;;;;;;;1.00;1.00;;;;;;;;5046105;28;50229;-68
2021/12/04 07:35:44;;;;;;;;;1.50;1.25;;;;;;;;5046139;28;49758;-65
2021/12/04 07:38:10;;;;;;;;;1.00;1.00;;;;;;;;5046344;28;49639;-64
2021/12/04 07:40:36;;;;;;;;;0.00;0.00;;;;;;;;5063261;27;49091;-64
2021/12/04 07:43:02;;;;;;;;;1.50;0.00;;;;;;;;5052682;28;49839;-62
2021/12/04 07:45:27;;;;;;;;;0.75;0.75;;;;;;;;5046419;28;49663;-62
2021/12/04 07:47:52;;;;;;;;;0.00;0.00;;;;;;;;5047451;28;49811;-64
2021/12/04 07:50:17;;;;;;;;;0.00;0.00;;;;;;;;5046718;28;49769;-64
2021/12/04 07:52:42;;;;;;;;;2.00;2.00;;;;;;;;5050950;28;49617;-65
2021/12/04 07:55:09;;;;;;;;;0.00;0.00;;;;;;;;5063489;28;49634;-68
2021/12/04 07:57:34;;;;;;;;;1.00;1.00;;;;;;;;5060980;28;49570;-66
2021/12/04 08:00:00;;;;;;;;;2.00;0.75;;;;;;;;5063812;28;49943;-67
2021/12/04 08:02:25;;;;;;;;;0.00;0.00;;;;;;;;5061407;28;49994;-66
2021/12/04 08:04:50;;;;;;;;;1.50;1.00;;;;;;;;5049820;28;49671;-67
2021/12/04 08:07:15;;;;;;;;;1.00;1.00;;;;;;;;5051601;28;49877;-69
2021/12/04 08:09:41;;;;;;;;;0.00;0.00;;;;;;;;5054692;28;49902;-74
2021/12/04 08:12:07;;;;;;;;;0.00;0.00;;;;;;;;5053114;28;49554;-69
2021/12/04 08:14:32;;;;;;;;;1.00;0.00;;;;;;;;5052268;28;49883;-68
2021/12/04 08:16:57;;;;;;;;;0.00;0.00;;;;;;;;5052366;28;49891;-69
2021/12/04 08:19:22;;;;;;;;;0.00;0.00;;;;;;;;5049714;28;49734;-71
2021/12/04 08:21:48;;;;;;;;;0.00;0.00;;;;;;;;5031455;28;51503;-68
2021/12/04 08:24:13;;;;;;;;;0.00;0.00;;;;;;;;5049352;28;49702;-65
2021/12/04 08:26:38;;;;;;;;;0.25;0.00;;;;;;;;5049924;28;49860;-65
2021/12/04 08:29:04;;;;;;;;;0.00;0.00;;;;;;;;5049703;28;49778;-66
2021/12/04 08:31:29;;;;;;;;;0.00;0.00;;;;;;;;5049734;28;50998;-69
2021/12/04 08:33:55;;;;;;;;;0.00;0.00;;;;;;;;5048686;28;49720;-64
2021/12/04 08:36:21;;;;;;;;;0.00;0.00;;;;;;;;5042641;27;49709;-65
2021/12/04 08:38:47;;;;;;;;;0.00;0.00;;;;;;;;5012113;28;50057;-66
2021/12/04 08:41:12;;;;;;;;;1.00;0.00;;;;;;;;5042766;27;50554;-66
2021/12/04 08:43:37;;;;;;;;;0.00;0.00;;;;;;;;5049012;28;49586;-64
2021/12/04 08:46:03;;;;;;;;;0.00;0.00;;;;;;;;5049367;28;49891;-65
2021/12/04 08:48:31;;;;;;;;;0.00;0.00;;;;;;;;5049416;28;49526;-70
2021/12/04 08:50:58;;;;;;;;;0.75;0.00;;;;;;;;5118012;27;52396;-67
2021/12/04 08:53:24;;;;;;;;;0.00;0.00;;;;;;;;5048926;28;49758;-68
2021/12/04 08:55:49;;;;;;;;;0.00;0.00;;;;;;;;5100919;27;49757;-67
2021/12/04 08:58:15;;;;;;;;;0.00;0.00;;;;;;;;5019680;28;49804;-67
2021/12/04 09:01:07;;;;;;;;;0.00;0.00;;;;;;;;5029010;28;49752;-69
2021/12/04 09:03:35;;;;;;;;;0.00;0.00;;;;;;;;5012088;28;49859;-69
2021/12/04 09:06:00;;;;;;;;;0.00;0.00;;;;;;;;5038587;27;49783;-67
2021/12/04 09:08:27;;;;;;;;;0.00;0.00;;;;;;;;5117350;27;49901;-68
2021/12/04 09:10:53;;;;;;;;;1.00;0.00;;;;;;;;5117712;27;51890;-67
2021/12/04 09:13:19;;;;;;;;;0.00;0.00;;;;;;;;5118406;27;49627;-67
2021/12/04 09:15:45;;;;;;;;;2.00;0.00;;;;;;;;5118560;27;49853;-68
2021/12/04 09:18:10;;;;;;;;;0.00;0.00;;;;;;;;5107526;27;50417;-66
2021/12/04 09:20:36;;;;;;;;;0.50;0.00;;;;;;;;5019041;28;51412;-67
2021/12/04 09:23:02;;;;;;;;;1.25;0.00;;;;;;;;5029066;28;49649;-67
2021/12/04 09:25:29;;;;;;;;;0.00;0.00;;;;;;;;5028664;28;49737;-67
2021/12/04 10:00:19;;;;;;;;;0.00;0.00;;;;;;;;5037170;28;49540;-65
2021/12/04 10:33:28;;;;;;;;;1.25;0.00;;;;;;;;5027925;28;49530;-65
2021/12/04 10:35:53;;;;;;;;;1.00;0.00;;;;;;;;5027770;28;49857;-64
2021/12/04 10:38:20;;;;;;;;;0.50;0.50;;;;;;;;5014081;28;49811;-65
2021/12/04 10:40:48;;;;;;;;;0.00;0.00;;;;;;;;5018201;28;49606;-65
2021/12/04 10:43:24;;;;;;;;;0.00;0.00;;;;;;;;5009982;28;49728;-64
2021/12/04 10:45:55;;;;;;;;;1.00;0.00;;;;;;;;5035505;27;49977;-65
2021/12/04 10:48:24;;;;;;;;;0.00;0.00;;;;;;;;5046116;28;49941;-65
2021/12/04 10:53:25;;;;;;;;;1.50;0.00;;;;;;;;5030000;28;49931;-65
2021/12/04 10:56:06;;;;;;;;;0.00;0.00;;;;;;;;5047340;28;49820;-63
2021/12/04 11:03:49;;;;;;;;;0.00;0.00;;;;;;;;5047370;28;49709;-64
2021/12/04 11:34:58;;;;;;;;;1.50;1.50;;;;;;;;5046761;28;49855;-69
2021/12/04 11:39:38;;;;;;;;;1.00;1.00;;;;;;;;5049831;28;49835;-71
2021/12/04 11:42:19;;;;;;;;;1.75;0.75;;;;;;;;5032049;28;49806;-71
2021/12/04 11:45:02;;;;;;;;;1.50;1.00;;;;;;;;5050094;28;49715;-71
2021/12/04 11:47:35;;;;;;;;;2.00;2.00;;;;;;;;5049657;28;49707;-69
2021/12/04 11:50:00;;;;;;;;;1.75;0.50;;;;;;;;5049723;28;49701;-71
2021/12/04 11:52:25;;;;;;;;;1.00;1.00;;;;;;;;5049275;28;50138;-72
2021/12/04 11:54:59;;;;;;;;;1.50;1.50;;;;;;;;5049788;28;49768;-68
2021/12/04 11:57:32;;;;;;;;;3.00;2.00;;;;;;;;5050116;28;49671;-63
2021/12/04 12:00:08;;;;;;;;;3.00;2.00;;;;;;;;5049706;28;49722;-65
2021/12/04 12:02:33;;;;;;;;;5.25;5.25;;;;;;;;5050561;28;49834;-67
2021/12/04 12:04:59;;;;;;;;;2.25;2.25;;;;;;;;5052023;28;49858;-65
2021/12/04 12:07:25;;;;;;;;;2.00;2.00;;;;;;;;5049574;28;49612;-67
2021/12/04 12:10:11;;;;;;;;;2.75;2.00;;;;;;;;5049230;28;49769;-69
2021/12/04 12:12:41;;;;;;;;;1.50;1.00;;;;;;;;5049183;28;49793;-82
2021/12/04 12:15:23;;;;;;;;;6.00;4.00;;;;;;;;5049627;28;50051;-66
2021/12/04 12:17:54;;;;;;;;;2.75;1.00;;;;;;;;5049679;28;50005;-64
2021/12/04 12:20:29;;;;;;;;;2.75;2.00;;;;;;;;5054864;28;49756;-62
2021/12/04 12:23:02;;;;;;;;;1.00;1.00;;;;;;;;5048322;28;49833;-60
2021/12/04 12:36:19;;;;;;;;;7.00;2.00;;;;;;;;5048444;27;49859;-66
2021/12/04 12:38:44;;;;;;;;;1.00;1.00;;;;;;;;5049094;28;50033;-71
2021/12/04 12:41:15;;;;;;;;;0.75;0.75;;;;;;;;5048380;28;50342;-63
2021/12/04 12:43:40;;;;;;;;;2.25;1.25;;;;;;;;5048256;28;49647;-65
2021/12/04 12:46:06;;;;;;;;;3.00;2.00;;;;;;;;5049491;28;50081;-70
2021/12/04 12:48:45;;;;;;;;;2.25;2.25;;;;;;;;5049404;28;49855;-66
2021/12/04 12:51:10;;;;;;;;;1.75;1.75;;;;;;;;5048905;28;49882;-69
2021/12/04 12:53:41;;;;;;;;;4.25;3.50;;;;;;;;5049249;28;49748;-66
2021/12/04 12:56:08;;;;;;;;;3.00;3.00;;;;;;;;5048354;28;49836;-63
2021/12/04 12:59:21;;;;;;;;;7.50;4.50;;;;;;;;5048683;28;49712;-62
2021/12/04 13:13:28;;;;;;;;;3.50;3.25;;;;;;;;5047719;28;50257;-61
2021/12/04 13:16:00;;;;;;;;;3.25;3.25;;;;;;;;5058638;28;49851;-59
2021/12/04 13:18:26;;;;;;;;;1.00;1.00;;;;;;;;5082712;28;49340;-61
2021/12/04 13:20:52;;;;;;;;;2.50;2.50;;;;;;;;5071552;28;49592;-60
2021/12/04 13:23:19;;;;;;;;;2.25;1.00;;;;;;;;5064778;27;49580;-59
2021/12/04 13:26:13;;;;;;;;;2.25;2.00;;;;;;;;5048411;27;49825;-60
2021/12/04 13:28:42;;;;;;;;;6.50;2.25;;;;;;;;5051212;27;50013;-59
2021/12/04 13:31:07;;;;;;;;;2.75;1.50;;;;;;;;5048403;28;49652;-60
2021/12/04 13:33:36;;;;;;;;;2.25;1.25;;;;;;;;5048002;28;50522;-58
2021/12/04 13:36:02;;;;;;;;;3.25;2.00;;;;;;;;5027496;28;49680;-60
2021/12/04 13:38:27;;;;;;;;;1.00;1.00;;;;;;;;5028345;28;49615;-60
2021/12/04 13:40:54;;;;;;;;;2.00;0.50;;;;;;;;5028739;28;49721;-59
2021/12/04 13:43:21;;;;;;;;;1.00;1.00;;;;;;;;5028456;28;50243;-60
2021/12/04 13:45:54;;;;;;;;;2.25;0.50;;;;;;;;5028167;28;49723;-61
2021/12/04 13:48:19;;;;;;;;;1.75;1.50;;;;;;;;5028260;28;49593;-60
2021/12/04 13:50:45;;;;;;;;;2.25;1.50;;;;;;;;5028308;28;49609;-62
2021/12/04 13:53:13;;;;;;;;;1.00;1.00;;;;;;;;5027815;28;49602;-60
2021/12/04 13:55:40;;;;;;;;;5.00;3.00;;;;;;;;5028290;28;49770;-60
2021/12/04 13:58:05;;;;;;;;;2.00;1.00;;;;;;;;5028362;28;49813;-60
2021/12/04 14:00:31;;;;;;;;;2.00;2.00;;;;;;;;5028461;28;49927;-59
2021/12/04 14:02:56;;;;;;;;;0.00;0.00;;;;;;;;5027976;28;50667;-59
2021/12/04 14:05:22;;;;;;;;;3.00;2.50;;;;;;;;5025137;28;49862;-58
2021/12/04 14:07:52;;;;;;;;;5.00;2.25;;;;;;;;5059415;28;49930;-60
2021/12/04 14:10:19;;;;;;;;;3.00;2.00;;;;;;;;5047830;28;49759;-68
2021/12/04 14:12:45;;;;;;;;;6.25;2.75;;;;;;;;5049986;28;49733;-66
2021/12/04 14:15:11;;;;;;;;;3.00;2.00;;;;;;;;5046977;28;49676;-68
2021/12/04 14:17:37;;;;;;;;;2.00;1.25;;;;;;;;5047693;28;49991;-67
2021/12/04 14:20:03;;;;;;;;;3.75;2.00;;;;;;;;5031986;27;50020;-68
2021/12/04 14:22:28;;;;;;;;;2.75;1.75;;;;;;;;5026731;28;50737;-67
2021/12/04 14:24:57;;;;;;;;;3.00;2.75;;;;;;;;5027257;27;49696;-68
2021/12/04 14:27:28;;;;;;;;;3.25;3.25;;;;;;;;5026364;28;49726;-68
2021/12/04 14:29:58;;;;;;;;;2.50;2.00;;;;;;;;5027701;28;49992;-67
2021/12/04 14:32:25;;;;;;;;;2.25;2.00;;;;;;;;5027763;28;50484;-67
2021/12/04 14:34:56;;;;;;;;;0.00;0.00;;;;;;;;5027841;28;49766;-68
2021/12/04 14:37:21;;;;;;;;;2.00;1.00;;;;;;;;5028056;27;49835;-66
2021/12/04 14:39:48;;;;;;;;;1.50;0.50;;;;;;;;5027857;28;49858;-69
2021/12/04 14:42:16;;;;;;;;;1.75;1.50;;;;;;;;5027326;28;49681;-67
2021/12/04 14:44:46;;;;;;;;;1.00;1.00;;;;;;;;5049264;27;49893;-67
2021/12/04 14:47:11;;;;;;;;;2.75;1.50;;;;;;;;5052857;28;49632;-66
2021/12/04 14:49:39;;;;;;;;;1.00;1.00;;;;;;;;5046769;28;49724;-66
2021/12/04 14:52:04;;;;;;;;;2.00;2.00;;;;;;;;5046548;28;50441;-67
2021/12/04 14:54:32;;;;;;;;;2.50;1.00;;;;;;;;5046260;28;49872;-65
2021/12/04 14:56:59;;;;;;;;;2.75;1.25;;;;;;;;5046837;28;49820;-59
2021/12/04 14:59:24;;;;;;;;;0.75;0.75;;;;;;;;5040945;27;50231;-60
2021/12/04 15:01:49;;;;;;;;;2.00;1.00;;;;;;;;5040326;28;50580;-68
2021/12/04 15:04:15;;;;;;;;;3.75;1.00;;;;;;;;5046191;28;49854;-65
2021/12/04 15:06:41;;;;;;;;;2.00;2.00;;;;;;;;5052283;28;49747;-66
2021/12/04 15:09:10;;;;;;;;;5.25;1.00;;;;;;;;5051477;28;49782;-72
2021/12/04 15:11:36;;;;;;;;;2.50;2.50;;;;;;;;5047600;28;50492;-65
2021/12/04 15:14:06;;;;;;;;;6.75;3.50;;;;;;;;5048527;28;50001;-76
2021/12/04 15:19:11;;;;;;;;;2.75;2.75;;;;;;;;5049478;28;49845;-72
2021/12/04 15:21:41;;;;;;;;;1.00;1.00;;;;;;;;5048856;28;50531;-73
2021/12/04 15:24:09;;;;;;;;;2.50;1.75;;;;;;;;5031336;28;49689;-72
2021/12/04 15:26:39;;;;;;;;;2.25;1.00;;;;;;;;5049911;28;49697;-71
2021/12/04 15:29:05;;;;;;;;;2.50;2.00;;;;;;;;5025812;28;50193;-70
2021/12/04 15:31:30;;;;;;;;;1.50;1.00;;;;;;;;5010997;28;52136;-72
2021/12/04 15:33:57;;;;;;;;;1.75;0.75;;;;;;;;5011441;28;49898;-72
2021/12/04 15:36:27;;;;;;;;;2.00;2.00;;;;;;;;5018576;27;50164;-61
2021/12/04 15:38:54;;;;;;;;;2.50;1.00;;;;;;;;5031537;28;49821;-62
2021/12/04 15:54:15;;;;;;;;;1.00;0.00;;;;;;;;5052765;28;49800;-67
2021/12/04 15:56:45;;;;;;;;;0.75;0.75;;;;;;;;5029745;28;49745;-72
2021/12/04 15:59:19;;;;;;;;;1.50;0.75;;;;;;;;5034785;28;49805;-70
2021/12/04 16:01:44;;;;;;;;;0.00;0.00;;;;;;;;5049174;28;49716;-74
2021/12/04 16:04:20;;;;;;;;;0.25;0.00;;;;;;;;5049368;28;49718;-70
2021/12/04 16:06:45;;;;;;;;;2.25;1.00;;;;;;;;5049597;27;49718;-69
2021/12/04 16:09:11;;;;;;;;;0.00;0.00;;;;;;;;5044281;27;50200;-73
2021/12/04 16:11:37;;;;;;;;;0.00;0.00;;;;;;;;5046872;28;50466;-72
2021/12/04 16:14:04;;;;;;;;;0.00;0.00;;;;;;;;5049728;28;49879;-73
2021/12/04 16:16:32;;;;;;;;;1.00;1.00;;;;;;;;5067993;28;49869;-73
2021/12/04 16:18:58;;;;;;;;;1.50;0.75;;;;;;;;5067691;28;49837;-71
2021/12/04 16:21:24;;;;;;;;;2.25;0.00;;;;;;;;5068156;28;49958;-72
2021/12/04 16:23:51;;;;;;;;;2.00;1.00;;;;;;;;5056996;28;50230;-73
2021/12/04 16:26:19;;;;;;;;;0.75;0.75;;;;;;;;5050374;27;49817;-72
2021/12/04 16:32:11;;;;;;;;;0.50;0.50;;;;;;;;4998984;28;51232;-74
2021/12/04 16:37:34;;;;;;;;;6.75;0.00;;;;;;;;5047244;28;49754;-73
2021/12/04 16:40:00;;;;;;;;;1.00;0.00;;;;;;;;5047203;28;50290;-71
2021/12/04 16:42:25;;;;;;;;;1.00;0.00;;;;;;;;5050336;27;50410;-68
2021/12/04 16:44:51;;;;;;;;;2.00;1.00;;;;;;;;5047261;28;49619;-72
2021/12/04 16:47:16;;;;;;;;;0.75;0.75;;;;;;;;5048137;28;49754;-73
2021/12/04 16:49:42;;;;;;;;;0.75;0.75;;;;;;;;5048048;28;49885;-72
2021/12/04 16:55:17;;;;;;;;;0.00;0.00;;;;;;;;5047166;28;49824;-72
2021/12/04 16:57:58;;;;;;;;;3.25;0.50;;;;;;;;5046720;27;49911;-70
2021/12/04 17:00:24;;;;;;;;;0.25;0.25;;;;;;;;5047569;27;49897;-70
2021/12/04 17:02:49;;;;;;;;;0.00;0.00;;;;;;;;5049013;28;50283;-68
2021/12/04 17:05:14;;;;;;;;;0.25;0.25;;;;;;;;5066680;28;50096;-72
2021/12/04 17:07:39;;;;;;;;;0.00;0.00;;;;;;;;5049066;28;49888;-72
2021/12/04 17:10:07;;;;;;;;;0.00;0.00;;;;;;;;5050766;28;49684;-71
2021/12/04 17:12:33;;;;;;;;;0.00;0.00;;;;;;;;5047566;28;50522;-72
2021/12/04 17:14:58;;;;;;;;;0.00;0.00;;;;;;;;5046021;27;50015;-77
2021/12/04 17:17:28;;;;;;;;;0.50;0.50;;;;;;;;5044034;27;49745;-74
2021/12/04 17:19:54;;;;;;;;;0.00;0.00;;;;;;;;5047203;28;49648;-72
2021/12/04 17:22:19;;;;;;;;;0.00;0.00;;;;;;;;5048547;28;50732;-72
2021/12/04 17:24:44;;;;;;;;;1.00;1.00;;;;;;;;5056647;28;50568;-71
2021/12/04 17:27:09;;;;;;;;;1.50;1.00;;;;;;;;5029923;27;49722;-71
2021/12/04 17:29:35;;;;;;;;;1.25;0.50;;;;;;;;5046203;28;49771;-70
2021/12/04 17:32:02;;;;;;;;;0.00;0.00;;;;;;;;5049422;28;50839;-75
2021/12/04 17:34:27;;;;;;;;;0.75;0.75;;;;;;;;5058883;28;49937;-78
2021/12/04 17:36:52;;;;;;;;;1.00;1.00;;;;;;;;5066597;28;49708;-74
2021/12/04 17:39:18;;;;;;;;;1.00;1.00;;;;;;;;5069068;28;49781;-74
2021/12/04 17:41:44;;;;;;;;;1.00;1.00;;;;;;;;5068852;28;50376;-77
2021/12/04 17:44:15;;;;;;;;;2.00;2.00;;;;;;;;5069180;28;49684;-86
2021/12/04 17:46:40;;;;;;;;;1.00;1.00;;;;;;;;5066957;28;49714;-79
2021/12/04 17:49:07;;;;;;;;;2.00;2.00;;;;;;;;5069129;28;50018;-75
2021/12/04 17:51:32;;;;;;;;;2.50;2.00;;;;;;;;5067847;28;49929;-71
2021/12/04 17:54:00;;;;;;;;;1.75;1.75;;;;;;;;5050283;28;49632;-67
2021/12/04 17:56:25;;;;;;;;;1.00;1.00;;;;;;;;5040695;28;49786;-75
2021/12/04 17:58:51;;;;;;;;;4.00;2.00;;;;;;;;5038857;28;49840;-66
2021/12/04 18:01:19;;;;;;;;;1.75;1.00;;;;;;;;5065992;28;49761;-72
2021/12/04 18:03:45;;;;;;;;;1.00;1.00;;;;;;;;5049937;28;49530;-71
2021/12/04 18:06:11;;;;;;;;;1.00;1.00;;;;;;;;5068408;28;49749;-69
2021/12/04 18:08:41;;;;;;;;;0.50;0.50;;;;;;;;5059587;28;49897;-69
2021/12/04 18:11:07;;;;;;;;;1.00;0.00;;;;;;;;5048156;28;50288;-71
2021/12/04 18:13:35;;;;;;;;;2.50;2.00;;;;;;;;5047840;27;49800;-70
2021/12/04 18:16:02;;;;;;;;;3.00;2.00;;;;;;;;5053692;28;50102;-71
2021/12/04 18:18:30;;;;;;;;;2.25;1.75;;;;;;;;5044290;28;50182;-71
2021/12/04 18:20:55;;;;;;;;;1.00;1.00;;;;;;;;5058483;28;49875;-71